createdAt,value
2018-07-14T00:04:57.216Z,7.60
2018-07-14T00:10:32.971Z,6.28
2018-07-14T00:16:02.139Z,6.90
2018-07-14T00:21:37.133Z,6.12
2018-07-14T00:27:06.579Z,5.83
2018-07-14T00:32:35.824Z,5.92
2018-07-14T00:38:05.338Z,5.78
2018-07-14T00:43:35.907Z,6.05
2018-07-14T00:49:06.497Z,7.05
2018-07-14T00:54:35.812Z,6.15
2018-07-14T01:00:05.285Z,6.40
2018-07-14T01:05:34.824Z,6.95
2018-07-14T01:11:22.960Z,6.35
2018-07-14T01:16:52.248Z,6.15
2018-07-14T01:22:21.477Z,6.08
2018-07-14T01:27:50.703Z,5.95
2018-07-14T01:33:19.912Z,5.47
2018-07-14T01:38:49.208Z,6.03
2018-07-14T01:44:18.496Z,6.12
2018-07-14T01:49:48.444Z,5.62
2018-07-14T01:55:18.067Z,5.20
2018-07-14T02:00:47.401Z,4.95
2018-07-14T02:06:17.722Z,5.12
2018-07-14T02:11:46.997Z,3.60
2018-07-14T02:17:16.722Z,4.67
2018-07-14T02:22:47.167Z,4.97
2018-07-14T02:28:16.452Z,4.60
2018-07-14T02:33:45.731Z,4.78
2018-07-14T02:39:14.976Z,5.22
2018-07-14T02:44:44.217Z,4.92
2018-07-14T02:50:13.433Z,5.40
2018-07-14T02:55:42.702Z,4.25
2018-07-14T03:01:13.012Z,4.30
2018-07-14T03:06:42.357Z,5.45
2018-07-14T03:12:11.583Z,5.03
2018-07-14T03:17:40.772Z,4.55
2018-07-14T03:23:12.009Z,4.42
2018-07-14T03:28:41.223Z,4.45
2018-07-14T03:34:10.461Z,5.70
2018-07-14T03:39:39.759Z,4.95
2018-07-14T03:45:11.733Z,5.50
2018-07-14T03:50:40.906Z,4.67
2018-07-14T03:56:10.579Z,4.42
2018-07-14T04:01:42.972Z,5.15
2018-07-14T04:07:12.152Z,4.58
2018-07-14T04:12:41.426Z,5.83
2018-07-14T04:18:17.152Z,4.55
2018-07-14T04:23:46.515Z,5.17
2018-07-14T04:29:15.816Z,5.35
2018-07-14T04:34:45.108Z,5.85
2018-07-14T04:40:15.714Z,5.20
2018-07-14T04:45:45.505Z,4.70
2018-07-14T04:51:16.907Z,4.85
2018-07-14T04:56:47.417Z,5.03
2018-07-14T05:02:24.163Z,4.33
2018-07-14T05:07:55.704Z,4.22
2018-07-14T05:13:24.975Z,3.85
2018-07-14T05:18:55.262Z,4.60
2018-07-14T05:24:24.709Z,4.45
2018-07-14T05:29:53.928Z,4.30
2018-07-14T05:35:27.888Z,4.12
2018-07-14T05:40:57.174Z,4.08
2018-07-14T05:46:32.423Z,3.40
2018-07-14T05:52:01.667Z,3.83
2018-07-14T05:57:30.832Z,3.35
2018-07-14T06:03:00.105Z,3.80
2018-07-14T06:08:29.311Z,3.98
2018-07-14T06:13:58.522Z,3.35
2018-07-14T06:19:27.730Z,3.25
2018-07-14T06:24:57.952Z,3.65
2018-07-14T06:30:27.177Z,3.40
2018-07-14T06:35:56.367Z,3.72
2018-07-14T06:41:26.707Z,3.40
2018-07-14T06:46:55.936Z,3.42
2018-07-14T06:52:25.128Z,3.52
2018-07-14T06:57:54.377Z,3.65
2018-07-14T07:03:23.716Z,3.37
2018-07-14T07:08:53.936Z,3.25
2018-07-14T07:14:23.171Z,3.52
2018-07-14T07:19:52.236Z,3.05
2018-07-14T07:25:21.497Z,3.42
2018-07-14T07:30:50.959Z,2.77
2018-07-14T07:36:24.037Z,3.40
2018-07-14T07:41:53.649Z,4.37
2018-07-14T07:47:25.412Z,3.72
2018-07-14T07:52:54.776Z,2.98
2018-07-14T07:58:24.032Z,3.45
2018-07-14T08:03:53.239Z,3.17
2018-07-14T08:09:22.155Z,3.33
2018-07-14T08:14:51.474Z,3.00
2018-07-14T08:20:21.161Z,3.55
2018-07-14T08:25:50.580Z,2.85
2018-07-14T08:31:19.796Z,2.92
2018-07-14T08:36:50.767Z,3.05
2018-07-14T08:42:20.124Z,3.40
2018-07-14T08:47:49.715Z,2.92
2018-07-14T08:53:19.477Z,2.72
2018-07-14T08:58:48.772Z,3.12
2018-07-14T09:04:18.099Z,3.25
2018-07-14T09:09:47.452Z,3.42
2018-07-14T09:15:18.764Z,2.90
2018-07-14T09:20:49.426Z,2.80
2018-07-14T09:26:18.913Z,3.22
2018-07-14T09:31:48.142Z,2.90
2018-07-14T09:37:18.546Z,2.80
2018-07-14T09:42:48.186Z,2.52
2018-07-14T09:48:17.959Z,3.55
2018-07-14T09:53:47.402Z,3.25
2018-07-14T09:59:17.571Z,2.62
2018-07-14T10:04:46.889Z,3.10
2018-07-14T10:10:16.426Z,3.22
2018-07-14T10:15:45.806Z,2.72
2018-07-14T10:21:15.178Z,2.90
2018-07-14T10:26:44.487Z,3.67
2018-07-14T10:32:15.973Z,2.92
2018-07-14T10:37:45.343Z,3.00
2018-07-14T10:43:21.927Z,3.62
2018-07-14T10:48:53.233Z,3.62
2018-07-14T10:54:23.592Z,3.40
2018-07-14T10:59:53.009Z,3.72
2018-07-14T11:05:22.334Z,3.30
2018-07-14T11:10:52.161Z,3.40
2018-07-14T11:16:21.848Z,3.50
2018-07-14T11:21:51.473Z,2.80
2018-07-14T11:27:21.233Z,3.62
2018-07-14T11:32:50.503Z,3.40
2018-07-14T11:38:20.224Z,3.83
2018-07-14T11:43:49.731Z,4.12
2018-07-14T11:49:19.359Z,4.40
2018-07-14T11:54:48.612Z,4.10
2018-07-14T12:00:18.236Z,4.15
2018-07-14T12:05:47.538Z,4.55
2018-07-14T12:11:17.078Z,4.20
2018-07-14T12:16:46.401Z,4.05
2018-07-14T12:22:16.049Z,3.80
2018-07-14T12:27:45.220Z,4.70
2018-07-14T12:33:14.474Z,3.77
2018-07-14T12:38:43.792Z,3.02
2018-07-14T12:44:23.157Z,2.90
2018-07-14T12:49:52.514Z,3.02
2018-07-14T12:55:24.760Z,2.60
2018-07-14T13:00:54.172Z,2.72
2018-07-14T13:06:23.589Z,2.70
2018-07-14T13:11:52.834Z,2.25
2018-07-14T13:17:22.012Z,2.77
2018-07-14T13:22:51.473Z,2.42
2018-07-14T13:28:20.848Z,2.98
2018-07-14T13:33:50.310Z,2.52
2018-07-14T13:39:19.869Z,2.60
2018-07-14T13:44:52.632Z,2.50
2018-07-14T13:50:21.698Z,3.00
2018-07-14T13:55:51.060Z,2.27
2018-07-14T14:01:23.301Z,1.95
2018-07-14T14:06:53.106Z,1.80
2018-07-14T14:12:22.509Z,2.17
2018-07-14T14:17:52.094Z,2.60
2018-07-14T14:23:21.118Z,2.77
2018-07-14T14:28:51.422Z,3.35
2018-07-14T14:34:20.763Z,2.83
2018-07-14T14:39:50.149Z,3.67
2018-07-14T14:45:19.385Z,2.77
2018-07-14T14:50:49.929Z,2.47
2018-07-14T14:56:19.189Z,3.20
2018-07-14T15:01:48.538Z,3.22
2018-07-14T15:07:17.910Z,3.45
2018-07-14T15:12:48.195Z,3.27
2018-07-14T15:18:23.347Z,3.50
2018-07-14T15:23:52.619Z,2.70
2018-07-14T15:29:39.405Z,3.45
2018-07-14T15:35:08.709Z,3.70
2018-07-14T15:40:37.902Z,2.90
2018-07-14T15:46:07.146Z,3.17
2018-07-14T15:51:36.588Z,3.33
2018-07-14T15:57:05.952Z,3.67
2018-07-14T16:02:36.257Z,4.37
2018-07-14T16:08:05.471Z,6.58
2018-07-14T16:13:34.422Z,8.08
2018-07-14T16:19:03.746Z,8.43
2018-07-14T16:24:32.949Z,8.65
2018-07-14T16:30:02.227Z,10.08
2018-07-14T16:35:31.521Z,10.28
2018-07-14T16:41:00.750Z,10.30
2018-07-14T16:46:30.124Z,17.02
2018-07-14T16:51:59.364Z,9.95
2018-07-14T16:57:28.692Z,9.50
2018-07-14T17:02:57.863Z,10.00
2018-07-14T17:08:27.053Z,10.45
2018-07-14T17:13:55.995Z,8.40
2018-07-14T17:19:25.135Z,9.45
2018-07-14T17:24:54.097Z,10.38
2018-07-14T17:30:23.412Z,10.03
2018-07-14T17:35:52.666Z,8.25
2018-07-14T17:41:21.921Z,9.08
2018-07-14T17:46:51.498Z,7.35
2018-07-14T17:52:20.885Z,7.17
2018-07-14T17:57:50.260Z,7.08
2018-07-14T18:03:19.641Z,7.25
2018-07-14T18:08:49.018Z,7.22
2018-07-14T18:14:18.417Z,7.20
2018-07-14T18:19:47.485Z,7.15
2018-07-14T18:25:16.911Z,7.33
2018-07-14T18:30:46.279Z,8.58
2018-07-14T18:36:15.651Z,8.95
2018-07-14T18:41:44.769Z,8.48
2018-07-14T18:47:14.018Z,7.87
2018-07-14T18:52:43.320Z,8.35
2018-07-14T18:58:12.493Z,7.40
2018-07-14T19:03:41.696Z,6.60
2018-07-14T19:09:11.009Z,7.53
2018-07-14T19:14:40.142Z,7.33
2018-07-14T19:20:09.367Z,9.20
2018-07-14T19:25:38.660Z,8.58
2018-07-14T19:31:07.794Z,7.35
2018-07-14T19:36:37.067Z,7.72
2018-07-14T19:42:06.514Z,8.20
2018-07-14T19:47:35.667Z,9.20
2018-07-14T19:53:04.943Z,9.28
2018-07-14T19:58:34.221Z,9.95
2018-07-14T20:04:03.456Z,9.68
2018-07-14T20:09:32.665Z,10.13
2018-07-14T20:15:01.857Z,10.03
2018-07-14T20:20:31.027Z,9.95
2018-07-14T20:26:00.277Z,11.03
2018-07-14T20:31:29.527Z,10.28
2018-07-14T20:36:58.435Z,10.38
2018-07-14T20:42:27.645Z,10.35
2018-07-14T20:47:56.959Z,11.65
2018-07-14T20:53:26.195Z,11.85
2018-07-14T20:58:55.391Z,13.35
2018-07-14T21:04:25.647Z,13.65
2018-07-14T21:09:54.864Z,14.05
2018-07-14T21:15:23.799Z,14.20
2018-07-14T21:20:53.117Z,13.00
2018-07-14T21:26:22.416Z,12.68
2018-07-14T21:31:51.786Z,11.57
2018-07-14T21:37:20.959Z,11.70
2018-07-14T21:42:50.185Z,11.60
2018-07-14T21:48:19.399Z,11.22
2018-07-14T21:53:49.901Z,11.03
2018-07-14T21:59:19.165Z,10.65
2018-07-14T22:04:48.426Z,11.20
2018-07-14T22:10:19.677Z,11.90
2018-07-14T22:15:48.985Z,11.85
2018-07-14T22:21:18.761Z,12.13
2018-07-14T22:26:48.238Z,11.22
2018-07-14T22:32:17.827Z,11.88
2018-07-14T22:37:47.123Z,14.10
2018-07-14T22:43:17.501Z,11.70
2018-07-14T22:48:47.003Z,12.33
2018-07-14T22:54:16.297Z,13.28
2018-07-14T22:59:49.183Z,13.22
2018-07-14T23:05:18.640Z,11.70
2018-07-14T23:10:48.003Z,12.15
2018-07-14T23:16:17.275Z,11.73
2018-07-14T23:21:46.656Z,13.40
2018-07-14T23:27:15.930Z,11.30
2018-07-14T23:32:45.561Z,13.58
2018-07-14T23:38:14.879Z,11.75
2018-07-14T23:43:44.151Z,11.95
2018-07-14T23:49:13.462Z,10.50
2018-07-14T23:54:42.714Z,12.33
